createdAt,value
2023-08-23T00:02:05.038Z,101519.69
2023-08-23T00:07:07.847Z,101524.19
2023-08-23T00:12:12.340Z,101521.50
2023-08-23T00:17:15.220Z,101516.09
2023-08-23T00:22:18.045Z,101516.00
2023-08-23T00:27:22.318Z,101511.66
2023-08-23T00:32:25.169Z,101514.00
2023-08-23T00:37:27.954Z,101516.63
2023-08-23T00:42:32.291Z,101522.63
2023-08-23T00:47:35.695Z,101521.38
2023-08-23T00:52:52.154Z,101523.78
2023-08-23T00:57:59.414Z,101520.94
2023-08-23T01:03:02.638Z,101527.16
2023-08-23T01:08:15.118Z,101526.56
2023-08-23T01:13:29.366Z,101534.41
2023-08-23T01:18:33.394Z,101525.25
2023-08-23T01:23:38.370Z,101513.28
2023-08-23T01:28:41.201Z,101515.31
2023-08-23T01:33:49.511Z,101510.75
2023-08-23T01:38:54.744Z,101504.81
2023-08-23T01:43:57.500Z,101501.31
2023-08-23T01:49:00.288Z,101510.63
2023-08-23T01:54:04.662Z,101513.31
2023-08-23T01:59:07.679Z,101510.63
2023-08-23T02:04:10.467Z,101515.94
2023-08-23T02:09:15.129Z,101504.56
2023-08-23T02:14:17.979Z,101508.56
2023-08-23T02:19:20.769Z,101518.09
2023-08-23T02:24:24.901Z,101523.50
2023-08-23T02:29:27.742Z,101509.94
2023-08-23T02:34:30.599Z,101510.31
2023-08-23T02:39:34.724Z,101526.22
2023-08-23T02:44:38.061Z,101512.97
2023-08-23T02:49:40.860Z,101516.03
2023-08-23T02:54:47.273Z,101523.47
2023-08-23T02:59:50.079Z,101523.16
2023-08-23T03:04:53.768Z,101520.97
2023-08-23T03:09:57.930Z,101519.53
2023-08-23T03:15:00.795Z,101512.03
2023-08-23T03:20:03.879Z,101511.91
2023-08-23T03:25:10.329Z,101520.50
2023-08-23T03:30:13.840Z,101522.41
2023-08-23T03:35:17.803Z,101521.66
2023-08-23T03:40:21.925Z,101524.69
2023-08-23T03:45:24.679Z,101526.72
2023-08-23T03:50:27.451Z,101529.97
2023-08-23T03:55:32.200Z,101532.44
2023-08-23T04:00:35.161Z,101536.22
2023-08-23T04:05:41.974Z,101536.72
2023-08-23T04:10:49.338Z,101536.97
2023-08-23T04:15:52.135Z,101536.22
2023-08-23T04:21:00.467Z,101539.97
2023-08-23T04:26:05.309Z,101543.88
2023-08-23T04:31:08.144Z,101543.56
2023-08-23T04:36:25.100Z,101535.06
2023-08-23T04:41:29.314Z,101533.03
2023-08-23T04:46:32.119Z,101525.25
2023-08-23T04:51:35.039Z,101534.34
2023-08-23T04:56:40.016Z,101539.34
2023-08-23T05:01:43.096Z,101527.06
2023-08-23T05:06:46.002Z,101538.50
2023-08-23T05:11:53.347Z,101537.25
2023-08-23T05:16:57.356Z,101538.22
2023-08-23T05:22:00.216Z,101538.66
2023-08-23T05:27:04.512Z,101530.25
2023-08-23T05:32:08.613Z,101526.81
2023-08-23T05:37:11.568Z,101525.75
2023-08-23T05:42:15.843Z,101515.56
2023-08-23T05:47:18.681Z,101526.25
2023-08-23T05:52:21.890Z,101526.63
2023-08-23T05:57:26.072Z,101536.28
2023-08-23T06:02:29.210Z,101545.56
2023-08-23T06:07:32.047Z,101533.59
2023-08-23T06:12:36.155Z,101546.34
2023-08-23T06:17:38.986Z,101537.28
2023-08-23T06:22:41.796Z,101532.19
2023-08-23T06:27:46.781Z,101534.53
2023-08-23T06:32:51.108Z,101534.78
2023-08-23T06:37:54.191Z,101541.25
2023-08-23T06:42:58.341Z,101544.88
2023-08-23T06:48:01.206Z,101541.97
2023-08-23T06:53:04.035Z,101533.28
2023-08-23T06:58:08.761Z,101531.72
2023-08-23T07:03:11.606Z,101542.06
2023-08-23T07:08:14.440Z,101547.78
2023-08-23T07:13:18.569Z,101536.00
2023-08-23T07:18:21.332Z,101528.81
2023-08-23T07:23:24.183Z,101533.56
2023-08-23T07:28:29.480Z,101527.22
2023-08-23T07:33:32.318Z,101528.81
2023-08-23T07:38:35.195Z,101534.72
2023-08-23T07:43:39.588Z,101532.63
2023-08-23T07:48:42.556Z,101542.72
2023-08-23T07:53:45.337Z,101552.09
2023-08-23T07:58:49.612Z,101549.88
2023-08-23T08:03:52.925Z,101540.56
2023-08-23T08:08:55.734Z,101537.63
2023-08-23T08:13:59.893Z,101554.59
2023-08-23T08:19:02.670Z,101567.84
2023-08-23T08:24:05.968Z,101569.56
2023-08-23T08:29:10.089Z,101565.88
2023-08-23T08:34:12.902Z,101571.44
2023-08-23T08:39:15.712Z,101572.59
2023-08-23T08:44:20.148Z,101583.06
2023-08-23T08:49:22.934Z,101576.66
2023-08-23T08:54:26.642Z,101570.78
2023-08-23T08:59:31.587Z,101575.53
2023-08-23T09:04:34.343Z,101583.66
2023-08-23T09:09:37.423Z,101583.56
2023-08-23T09:14:41.590Z,101577.97
2023-08-23T09:19:44.380Z,101583.88
2023-08-23T09:24:47.211Z,101584.94
2023-08-23T09:29:54.660Z,101571.59
2023-08-23T09:34:58.815Z,101575.16
2023-08-23T09:40:01.827Z,101571.69
2023-08-23T09:45:07.085Z,101572.97
2023-08-23T09:50:11.356Z,101555.28
2023-08-23T09:55:15.658Z,101568.16
2023-08-23T10:00:20.646Z,101560.81
2023-08-23T10:05:26.419Z,101552.03
2023-08-23T10:10:32.915Z,101550.75
2023-08-23T10:15:39.686Z,101549.81
2023-08-23T10:20:44.525Z,101545.25
2023-08-23T10:25:48.723Z,101539.06
2023-08-23T10:31:01.084Z,101539.31
2023-08-23T10:36:10.428Z,101546.03
2023-08-23T10:41:18.599Z,101534.09
2023-08-23T10:46:24.492Z,101530.75
2023-08-23T10:51:27.355Z,101525.09
2023-08-23T10:56:30.666Z,101525.41
2023-08-23T11:01:35.013Z,101527.25
2023-08-23T11:06:37.942Z,101523.44
2023-08-23T11:11:40.712Z,101515.34
2023-08-23T11:16:45.615Z,101517.28
2023-08-23T11:21:48.521Z,101514.44
2023-08-23T11:26:51.301Z,101518.81
2023-08-23T11:31:56.818Z,101519.28
2023-08-23T11:36:59.667Z,101515.44
2023-08-23T11:42:03.745Z,101513.84
2023-08-23T11:47:07.990Z,101522.06
2023-08-23T11:52:11.522Z,101521.03
2023-08-23T11:57:16.480Z,101510.50
2023-08-23T12:02:20.648Z,101514.78
2023-08-23T12:07:23.407Z,101516.16
2023-08-23T12:12:26.403Z,101504.59
2023-08-23T12:17:30.590Z,101506.53
2023-08-23T12:22:33.369Z,101513.69
2023-08-23T12:27:36.247Z,101507.94
2023-08-23T12:32:40.519Z,101503.00
2023-08-23T12:37:43.523Z,101508.44
2023-08-23T12:42:46.301Z,101501.16
2023-08-23T12:47:50.871Z,101505.44
2023-08-23T12:52:54.038Z,101507.25
2023-08-23T12:57:56.795Z,101497.16
2023-08-23T13:03:01.306Z,101500.00
2023-08-23T13:08:04.806Z,101479.78
2023-08-23T13:13:07.746Z,101485.97
2023-08-23T13:18:11.909Z,101470.16
2023-08-23T13:23:14.925Z,101466.56
2023-08-23T13:28:17.966Z,101464.03
2023-08-23T13:33:22.092Z,101463.16
2023-08-23T13:38:24.930Z,101447.84
2023-08-23T13:43:28.480Z,101448.06
2023-08-23T13:48:32.667Z,101441.69
2023-08-23T13:53:35.758Z,101435.59
2023-08-23T13:58:38.535Z,101430.19
2023-08-23T14:03:42.662Z,101433.81
2023-08-23T14:08:45.407Z,101438.09
2023-08-23T14:13:48.202Z,101433.81
2023-08-23T14:18:52.319Z,101420.38
2023-08-23T14:23:55.091Z,101418.63
2023-08-23T14:28:57.856Z,101427.50
2023-08-23T14:34:01.986Z,101421.41
2023-08-23T14:39:05.127Z,101413.41
2023-08-23T14:44:08.045Z,101409.88
2023-08-23T14:49:14.898Z,101414.28
2023-08-23T14:54:17.705Z,101408.94
2023-08-23T14:59:20.571Z,101403.66
2023-08-23T15:04:24.770Z,101397.44
2023-08-23T15:09:27.539Z,101393.84
2023-08-23T15:14:30.329Z,101394.75
2023-08-23T15:19:34.573Z,101385.84
2023-08-23T15:24:42.302Z,101391.13
2023-08-23T15:30:01.100Z,101383.19
2023-08-23T15:35:11.188Z,101391.13
2023-08-23T15:40:13.995Z,101386.66
2023-08-23T15:45:19.611Z,101388.44
2023-08-23T15:50:24.366Z,101390.25
2023-08-23T15:55:27.738Z,101379.59
2023-08-23T16:00:30.920Z,101384.84
2023-08-23T16:05:35.052Z,101388.38
2023-08-23T16:10:41.350Z,101383.06
2023-08-23T16:15:44.250Z,101385.53
2023-08-23T16:20:50.630Z,101385.66
2023-08-23T16:25:56.354Z,101394.41
2023-08-23T16:30:59.296Z,101399.56
2023-08-23T16:36:04.006Z,101396.03
2023-08-23T16:41:06.838Z,101400.16
2023-08-23T16:46:09.949Z,101403.53
2023-08-23T16:51:14.113Z,101399.63
2023-08-23T16:56:16.841Z,101405.66
2023-08-23T17:01:19.703Z,101393.47
2023-08-23T17:06:24.371Z,101383.69
2023-08-23T17:11:27.154Z,101384.88
2023-08-23T17:16:31.002Z,101375.78
2023-08-23T17:21:36.033Z,101378.13
2023-08-23T17:26:38.838Z,101378.91
2023-08-23T17:31:50.558Z,101389.25
2023-08-23T17:36:54.973Z,101390.28
2023-08-23T17:41:57.843Z,101400.63
2023-08-23T17:47:06.371Z,101407.00
2023-08-23T17:52:10.752Z,101402.72
2023-08-23T17:57:13.525Z,101387.72
2023-08-23T18:02:16.339Z,101394.53
2023-08-23T18:07:20.502Z,101400.97
2023-08-23T18:12:23.484Z,101397.25
2023-08-23T18:17:26.332Z,101407.16
2023-08-23T18:22:30.525Z,101397.44
2023-08-23T18:27:33.391Z,101388.84
2023-08-23T18:32:36.231Z,101399.19
2023-08-23T18:37:40.523Z,101408.25
2023-08-23T18:42:43.296Z,101407.72
2023-08-23T18:47:48.153Z,101413.72
2023-08-23T18:52:53.592Z,101438.38
2023-08-23T18:57:56.428Z,101428.31
2023-08-23T19:02:59.302Z,101432.91
2023-08-23T19:08:03.622Z,101431.97
2023-08-23T19:13:06.394Z,101441.09
2023-08-23T19:18:10.013Z,101446.81
2023-08-23T19:23:14.271Z,101448.81
2023-08-23T19:28:17.134Z,101441.72
2023-08-23T19:33:19.964Z,101444.31
2023-08-23T19:38:24.210Z,101441.09
2023-08-23T19:43:27.342Z,101444.78
2023-08-23T19:48:33.393Z,101444.06
2023-08-23T19:53:38.680Z,101449.22
2023-08-23T19:58:41.775Z,101443.25
2023-08-23T20:03:44.668Z,101448.75
2023-08-23T20:08:48.981Z,101454.06
2023-08-23T20:13:51.780Z,101451.31
2023-08-23T20:18:56.124Z,101456.66
2023-08-23T20:24:00.407Z,101450.50
2023-08-23T20:29:03.402Z,101451.56
2023-08-23T20:34:06.219Z,101457.28
2023-08-23T20:39:10.341Z,101458.50
2023-08-23T20:44:13.142Z,101456.66
2023-08-23T20:49:15.989Z,101460.63
2023-08-23T20:54:20.357Z,101456.72
2023-08-23T20:59:23.156Z,101446.94
2023-08-23T21:04:27.187Z,101451.66
2023-08-23T21:09:31.568Z,101460.00
2023-08-23T21:14:34.407Z,101453.59
2023-08-23T21:19:37.244Z,101460.41
2023-08-23T21:24:41.330Z,101461.56
2023-08-23T21:29:44.061Z,101457.09
2023-08-23T21:34:46.860Z,101460.41
2023-08-23T21:39:57.689Z,101455.16
2023-08-23T21:45:00.611Z,101456.56
2023-08-23T21:50:03.530Z,101458.66
2023-08-23T21:55:08.502Z,101460.63
2023-08-23T22:00:13.367Z,101459.19
2023-08-23T22:05:16.318Z,101458.13
2023-08-23T22:10:20.686Z,101458.25
2023-08-23T22:15:23.472Z,101458.94
2023-08-23T22:20:28.016Z,101457.88
2023-08-23T22:25:32.173Z,101451.19
2023-08-23T22:30:34.963Z,101459.72
2023-08-23T22:35:39.327Z,101451.75
2023-08-23T22:40:50.364Z,101452.41
2023-08-23T22:45:55.253Z,101451.09
2023-08-23T22:50:58.219Z,101461.72
2023-08-23T22:56:03.797Z,101464.75
2023-08-23T23:01:06.602Z,101461.97
2023-08-23T23:06:09.830Z,101458.66
2023-08-23T23:11:13.957Z,101451.88
2023-08-23T23:16:16.781Z,101446.09
2023-08-23T23:21:20.076Z,101448.63
2023-08-23T23:26:24.195Z,101452.06
2023-08-23T23:31:27.018Z,101444.38
2023-08-23T23:36:32.141Z,101455.03
2023-08-23T23:41:36.287Z,101448.59
2023-08-23T23:46:40.396Z,101445.94
2023-08-23T23:51:43.167Z,101433.78
2023-08-23T23:56:47.312Z,101423.88
